Time;durP1;ratioP1;P1;durP2;ratioP2;P2;SDS_P1;SDS_P2;PMS_P1;PMS_P2;Temp;Humidity;BMP_temperature;BMP_pressure;BME280_temperature;BME280_humidity;BME280_pressure;Samples;Min_cycle;Max_cycle;Signal;HPM_P1;HPM_P2
2021/11/10 00:00:17;;;;;;;11.60;10.40;;;5.30;57.80;;;;;;4950860;29;20479;-89
2021/11/10 00:02:43;;;;;;;12.07;10.47;;;5.30;58.00;;;;;;4950607;29;20995;-88
2021/11/10 00:05:10;;;;;;;11.67;9.80;;;5.30;58.00;;;;;;4951651;29;20448;-88
2021/11/10 00:07:37;;;;;;;13.57;9.33;;;5.30;58.00;;;;;;4934651;29;20432;-89
2021/11/10 00:10:04;;;;;;;10.03;9.03;;;5.30;57.70;;;;;;4951483;29;20843;-89
2021/11/10 00:12:32;;;;;;;9.67;8.73;;;5.20;56.70;;;;;;4936423;29;20408;-89
2021/11/10 00:14:58;;;;;;;11.57;10.30;;;5.20;57.60;;;;;;4936296;29;20423;-89
2021/11/10 00:17:24;;;;;;;13.20;8.93;;;5.20;57.90;;;;;;4952119;29;20427;-88
2021/11/10 00:19:50;;;;;;;8.97;8.17;;;5.10;56.40;;;;;;4952533;29;20176;-88
2021/11/10 00:22:16;;;;;;;11.47;10.00;;;4.90;57.40;;;;;;4952094;29;20506;-88
2021/11/10 00:24:41;;;;;;;11.60;10.60;;;5.00;57.50;;;;;;4951897;29;20520;-87
2021/11/10 00:27:07;;;;;;;10.80;8.80;;;5.10;57.90;;;;;;4951844;29;20222;-88
2021/11/10 00:29:33;;;;;;;9.70;8.77;;;5.10;57.20;;;;;;4952353;29;20639;-89
2021/11/10 00:31:59;;;;;;;10.20;9.20;;;5.10;56.90;;;;;;4936087;29;20190;-87
2021/11/10 00:34:24;;;;;;;10.63;9.63;;;5.10;56.40;;;;;;4951385;29;20439;-88
2021/11/10 00:36:50;;;;;;;11.70;10.50;;;5.10;56.30;;;;;;4937403;29;20172;-90
2021/11/10 00:39:16;;;;;;;10.80;9.70;;;5.10;56.30;;;;;;4951999;29;20206;-88
2021/11/10 00:41:42;;;;;;;10.93;9.93;;;5.10;56.20;;;;;;4937450;29;20187;-88
2021/11/10 00:44:07;;;;;;;10.90;9.90;;;5.00;56.30;;;;;;4955596;29;20517;-89
2021/11/10 00:46:33;;;;;;;9.77;8.70;;;5.00;56.20;;;;;;4955598;29;20669;-88
2021/11/10 00:49:00;;;;;;;11.23;10.10;;;4.90;57.00;;;;;;4955104;29;20203;-89
2021/11/10 00:51:27;;;;;;;11.27;10.17;;;4.90;56.80;;;;;;4955540;29;20187;-89
2021/11/10 00:53:53;;;;;;;11.97;10.77;;;4.90;56.20;;;;;;4955641;29;20522;-89
2021/11/10 00:56:19;;;;;;;13.77;11.50;;;4.80;56.40;;;;;;4955537;29;20435;-89
2021/11/10 00:58:44;;;;;;;11.37;10.27;;;4.90;57.70;;;;;;4955517;29;20195;-89
2021/11/10 01:01:10;;;;;;;10.87;9.73;;;4.80;57.60;;;;;;4955631;29;20652;-89
2021/11/10 01:03:36;;;;;;;10.93;9.70;;;4.80;58.30;;;;;;4955900;29;20223;-89
2021/11/10 01:06:02;;;;;;;12.00;10.73;;;4.80;58.00;;;;;;4954995;29;20191;-89
2021/11/10 01:08:28;;;;;;;11.60;10.60;;;4.80;58.00;;;;;;4954579;29;20289;-89
2021/11/10 01:10:56;;;;;;;13.37;10.87;;;4.80;58.50;;;;;;4953793;29;20962;-87
2021/11/10 01:13:22;;;;;;;11.80;10.20;;;4.80;57.70;;;;;;4955046;29;20614;-88
2021/11/10 01:15:48;;;;;;;12.20;10.50;;;4.80;58.70;;;;;;4954928;29;20424;-88
2021/11/10 01:18:14;;;;;;;12.00;10.60;;;4.70;59.00;;;;;;4940861;29;20743;-89
2021/11/10 01:20:41;;;;;;;11.80;10.60;;;4.80;58.80;;;;;;4955914;29;20434;-89
2021/11/10 01:23:08;;;;;;;12.10;10.90;;;4.80;58.30;;;;;;4955716;29;20204;-88
2021/11/10 01:25:35;;;;;;;12.10;10.87;;;4.70;58.30;;;;;;4954913;29;20813;-89
2021/11/10 01:28:01;;;;;;;12.03;9.87;;;4.70;58.40;;;;;;4955288;29;20505;-89
2021/11/10 01:30:26;;;;;;;12.30;10.47;;;4.70;58.40;;;;;;4938773;29;20468;-90
2021/11/10 01:32:52;;;;;;;10.87;9.77;;;4.80;58.40;;;;;;4955379;29;20420;-89
2021/11/10 01:35:18;;;;;;;12.20;11.00;;;4.70;58.80;;;;;;4954407;29;20185;-87
2021/11/10 01:37:45;;;;;;;15.23;10.70;;;4.80;58.80;;;;;;4954779;29;20432;-88
2021/11/10 01:40:12;;;;;;;11.37;10.20;;;4.70;58.20;;;;;;4939950;29;20184;-89
2021/11/10 01:42:43;;;;;;;15.93;11.10;;;4.70;58.50;;;;;;4955113;29;20992;-89
2021/11/10 01:45:11;;;;;;;11.43;10.27;;;4.70;58.30;;;;;;4955153;29;20904;-89
2021/11/10 01:47:37;;;;;;;13.10;11.07;;;4.70;58.90;;;;;;4955025;29;20436;-89
2021/11/10 01:50:07;;;;;;;17.40;11.80;;;4.60;59.10;;;;;;4955053;29;20704;-89
2021/11/10 01:52:33;;;;;;;11.90;10.80;;;4.60;59.20;;;;;;4954771;29;20428;-88
2021/11/10 01:54:59;;;;;;;11.70;10.70;;;4.60;58.60;;;;;;4953493;28;20507;-88
2021/11/10 01:57:25;;;;;;;11.63;10.50;;;4.60;59.30;;;;;;4954669;29;20813;-88
2021/11/10 02:00:20;;;;;;;12.40;10.37;;;4.60;59.70;;;;;;4955011;29;20499;-88
2021/11/10 02:02:47;;;;;;;11.90;10.13;;;4.60;59.00;;;;;;4954570;29;20529;-87
2021/11/10 02:05:15;;;;;;;11.93;10.90;;;4.60;59.40;;;;;;4954925;29;20432;-89
2021/11/10 02:07:42;;;;;;;12.20;10.93;;;4.50;59.80;;;;;;4961293;29;20424;-88
2021/11/10 02:10:09;;;;;;;13.93;12.53;;;4.60;59.60;;;;;;4959876;29;20471;-91
2021/11/10 02:12:36;;;;;;;11.57;10.47;;;4.50;59.70;;;;;;4953890;29;20428;-91
2021/11/10 02:15:06;;;;;;;12.67;11.47;;;4.50;59.70;;;;;;4952442;29;20455;-91
2021/11/10 02:17:32;;;;;;;13.03;10.53;;;4.50;60.40;;;;;;4951973;29;20424;-91
2021/11/10 02:19:57;;;;;;;12.83;11.60;;;4.50;59.70;;;;;;4951610;29;20510;-91
2021/11/10 02:22:23;;;;;;;13.43;12.10;;;4.60;60.30;;;;;;4952249;29;20474;-91
2021/11/10 02:24:49;;;;;;;12.67;11.43;;;4.60;59.70;;;;;;4952275;29;20184;-91
2021/11/10 02:27:21;;;;;;;12.13;11.10;;;4.60;59.10;;;;;;4951244;29;20424;-91
2021/11/10 02:29:49;;;;;;;13.43;12.13;;;4.50;59.10;;;;;;4951379;29;20307;-91
2021/11/10 02:32:15;;;;;;;12.60;11.30;;;4.40;59.50;;;;;;4951838;29;20478;-90
2021/11/10 02:34:43;;;;;;;14.07;12.57;;;4.40;59.80;;;;;;4951376;29;20788;-91
2021/11/10 02:37:11;;;;;;;12.50;11.40;;;4.50;59.10;;;;;;4950051;29;20438;-89
2021/11/10 02:39:40;;;;;;;11.77;10.67;;;4.60;59.00;;;;;;4951162;29;20475;-90
2021/11/10 02:42:07;;;;;;;12.33;11.07;;;4.50;59.00;;;;;;4950374;29;20424;-91
2021/11/10 02:44:33;;;;;;;12.07;10.73;;;4.50;59.10;;;;;;4951512;29;20430;-90
2021/11/10 02:47:01;;;;;;;12.07;10.87;;;4.50;59.10;;;;;;4951733;29;20420;-90
2021/11/10 02:49:27;;;;;;;12.93;11.63;;;4.50;59.20;;;;;;4951151;29;20463;-90
2021/11/10 02:52:10;;;;;;;11.67;10.63;;;4.40;59.60;;;;;;4951387;29;20452;-91
2021/11/10 02:54:41;;;;;;;12.40;11.20;;;4.30;59.90;;;;;;4951949;29;20512;-89
2021/11/10 02:57:08;;;;;;;13.47;12.27;;;4.30;60.20;;;;;;4951529;29;20443;-91
2021/11/10 02:59:34;;;;;;;12.10;10.90;;;4.30;60.10;;;;;;4950996;29;20472;-90
2021/11/10 03:02:01;;;;;;;13.07;11.77;;;4.30;60.30;;;;;;4951001;29;20428;-90
2021/11/10 03:04:30;;;;;;;13.63;12.23;;;4.30;60.90;;;;;;4951563;29;20459;-91
2021/11/10 03:06:57;;;;;;;18.30;12.50;;;4.30;59.90;;;;;;4935759;29;20811;-91
2021/11/10 03:09:28;;;;;;;13.73;12.23;;;4.30;60.10;;;;;;4950857;29;20464;-91
2021/11/10 03:11:59;;;;;;;13.83;12.57;;;4.30;60.30;;;;;;4951219;29;20523;-88
2021/11/10 03:14:30;;;;;;;12.97;11.50;;;4.30;59.70;;;;;;4951957;29;20420;-88
2021/11/10 03:17:00;;;;;;;12.10;11.00;;;4.30;59.70;;;;;;4952714;29;20470;-89
2021/11/10 03:19:26;;;;;;;12.13;11.03;;;4.30;59.40;;;;;;4953528;29;20459;-89
2021/11/10 03:21:52;;;;;;;13.30;11.30;;;4.30;60.20;;;;;;4952740;29;20495;-88
2021/11/10 03:24:18;;;;;;;12.50;11.30;;;4.30;60.10;;;;;;4952797;29;20499;-89
2021/11/10 03:26:44;;;;;;;15.87;12.10;;;4.20;60.30;;;;;;4953062;29;20564;-88
2021/11/10 03:29:10;;;;;;;14.57;13.07;;;4.20;61.10;;;;;;4952283;29;20626;-89
2021/11/10 03:31:38;;;;;;;14.20;12.80;;;4.30;60.90;;;;;;4952101;29;20419;-88
2021/11/10 03:34:06;;;;;;;15.23;13.73;;;4.40;60.20;;;;;;4951228;29;20763;-89
2021/11/10 03:36:32;;;;;;;14.43;13.10;;;4.30;59.70;;;;;;4950532;29;20464;-92
2021/11/10 03:38:58;;;;;;;16.17;14.60;;;4.30;60.00;;;;;;4950027;29;20424;-91
2021/11/10 03:41:25;;;;;;;15.50;13.93;;;4.20;60.50;;;;;;4950815;29;20765;-91
2021/11/10 03:43:51;;;;;;;16.03;13.40;;;4.30;60.30;;;;;;4950069;29;20507;-89
2021/11/10 03:46:21;;;;;;;14.27;12.90;;;4.40;59.80;;;;;;4950017;29;20435;-90
2021/11/10 03:48:48;;;;;;;15.30;12.50;;;4.30;59.70;;;;;;4950064;29;20474;-90
2021/11/10 03:51:14;;;;;;;15.50;13.73;;;4.40;59.70;;;;;;4951058;29;20789;-91
2021/11/10 03:53:39;;;;;;;14.40;12.90;;;4.30;60.00;;;;;;4950452;29;20434;-89
2021/11/10 03:56:06;;;;;;;16.70;13.50;;;4.30;60.20;;;;;;4949393;29;20507;-91
2021/11/10 03:58:33;;;;;;;13.53;12.23;;;4.30;60.20;;;;;;4949691;29;20199;-91
2021/11/10 04:00:59;;;;;;;14.63;13.13;;;4.30;60.50;;;;;;4951735;29;20527;-88
2021/11/10 04:03:26;;;;;;;15.40;13.90;;;4.30;60.10;;;;;;4951767;29;20503;-88
2021/11/10 04:05:52;;;;;;;16.47;12.90;;;4.40;60.70;;;;;;4951843;29;20438;-89
2021/11/10 04:08:18;;;;;;;14.10;12.60;;;4.30;60.40;;;;;;4952031;29;20435;-88
2021/11/10 04:10:44;;;;;;;14.43;12.97;;;4.40;60.20;;;;;;4951854;29;20420;-88
2021/11/10 04:13:10;;;;;;;14.50;13.20;;;4.40;60.00;;;;;;4937145;29;20416;-88
2021/11/10 04:15:36;;;;;;;14.47;13.23;;;4.40;60.00;;;;;;4950448;29;20279;-90
2021/11/10 04:18:02;;;;;;;16.23;14.63;;;4.40;60.00;;;;;;4949241;29;20524;-91
2021/11/10 04:20:28;;;;;;;14.00;12.80;;;4.40;60.30;;;;;;4950084;29;20184;-91
2021/11/10 04:22:54;;;;;;;17.00;14.63;;;4.50;59.70;;;;;;4949735;29;20770;-91
2021/11/10 04:25:20;;;;;;;17.27;14.60;;;4.40;59.40;;;;;;4949965;29;20191;-91
2021/11/10 04:27:45;;;;;;;16.13;14.43;;;4.40;59.50;;;;;;4950273;29;20561;-91
2021/11/10 04:30:11;;;;;;;15.23;13.30;;;4.40;60.00;;;;;;4951074;29;21045;-91
2021/11/10 04:32:39;;;;;;;14.67;13.10;;;4.40;59.30;;;;;;4936198;29;20172;-91
2021/11/10 04:35:08;;;;;;;16.50;14.77;;;4.40;59.10;;;;;;4949802;29;20420;-91
2021/11/10 04:37:34;;;;;;;15.07;13.10;;;4.50;59.70;;;;;;4949240;29;20830;-90
2021/11/10 04:40:01;;;;;;;15.57;13.90;;;4.60;59.20;;;;;;4934456;29;20419;-91
2021/11/10 04:42:27;;;;;;;16.50;13.93;;;4.60;59.00;;;;;;4948780;29;20448;-91
2021/11/10 04:44:57;;;;;;;16.43;14.80;;;4.50;57.90;;;;;;4949053;29;20431;-90
2021/11/10 04:47:23;;;;;;;15.33;13.23;;;4.50;58.20;;;;;;4948641;29;20424;-90
2021/11/10 04:49:48;;;;;;;15.63;14.07;;;4.50;57.30;;;;;;4948386;29;20802;-89
2021/11/10 04:52:16;;;;;;;15.70;14.00;;;4.50;57.40;;;;;;4948297;29;20606;-90
2021/11/10 04:54:42;;;;;;;15.83;13.87;;;4.60;58.20;;;;;;4949428;29;20581;-90
2021/11/10 04:57:08;;;;;;;14.83;13.33;;;4.60;58.60;;;;;;4948154;29;20435;-90
2021/11/10 04:59:34;;;;;;;15.30;13.80;;;4.60;58.40;;;;;;4948394;29;20428;-91
2021/11/10 05:04:40;;;;;;;17.47;14.90;;;4.60;58.20;;;;;;4936448;29;20430;-88
2021/11/10 05:07:11;;;;;;;15.80;14.23;;;4.60;57.90;;;;;;4949766;29;20428;-87
2021/11/10 05:09:37;;;;;;;15.87;14.03;;;4.60;57.40;;;;;;4948566;29;20554;-87
2021/11/10 05:12:15;;;;;;;15.90;14.30;;;4.60;57.70;;;;;;4948551;29;20412;-88
2021/11/10 05:14:41;;;;;;;15.83;13.33;;;4.50;58.20;;;;;;4947843;29;20414;-87
2021/11/10 05:17:06;;;;;;;14.30;12.97;;;4.50;58.60;;;;;;4947410;29;20858;-88
2021/11/10 05:19:32;;;;;;;13.63;12.23;;;4.60;58.80;;;;;;4947726;29;20932;-88
2021/11/10 05:21:58;;;;;;;14.73;13.33;;;4.60;57.40;;;;;;4947771;29;20180;-88
2021/11/10 05:24:26;;;;;;;17.10;15.27;;;4.60;57.40;;;;;;4947314;29;20191;-89
2021/11/10 05:26:52;;;;;;;21.27;14.53;;;4.60;57.90;;;;;;4949545;29;20716;-88
2021/11/10 05:29:18;;;;;;;13.80;12.23;;;4.60;57.40;;;;;;4950347;28;20476;-86
2021/11/10 05:31:48;;;;;;;16.07;14.37;;;4.70;57.50;;;;;;4938867;29;20416;-86
2021/11/10 05:34:14;;;;;;;14.97;13.27;;;4.60;57.40;;;;;;4951998;29;20182;-87
2021/11/10 05:36:41;;;;;;;17.77;13.13;;;4.60;58.30;;;;;;4937013;29;20973;-89
2021/11/10 05:39:09;;;;;;;14.87;13.47;;;4.60;58.20;;;;;;4952644;29;20420;-87
2021/11/10 05:41:35;;;;;;;16.57;13.90;;;4.50;57.40;;;;;;4951770;29;20447;-86
2021/11/10 05:44:01;;;;;;;16.27;14.67;;;4.50;58.40;;;;;;4952233;29;20424;-87
2021/11/10 05:46:26;;;;;;;16.20;14.50;;;4.50;58.30;;;;;;4935444;29;20416;-87
2021/11/10 05:48:52;;;;;;;15.40;13.90;;;4.50;58.00;;;;;;4947210;28;20205;-87
2021/11/10 05:51:18;;;;;;;14.90;13.30;;;4.50;58.40;;;;;;4916155;29;20268;-88
2021/11/10 05:53:45;;;;;;;15.60;14.00;;;4.40;58.90;;;;;;4916251;29;20177;-88
2021/11/10 05:56:19;;;;;;;15.33;13.93;;;4.40;58.70;;;;;;4916796;29;20437;-89
2021/11/10 05:58:47;;;;;;;19.47;17.47;;;4.40;58.90;;;;;;4917067;29;20472;-88
2021/11/10 06:01:12;;;;;;;17.53;15.63;;;4.40;59.20;;;;;;4916309;29;20480;-88
2021/11/10 06:03:38;;;;;;;20.00;16.40;;;4.40;58.90;;;;;;4917015;29;20433;-87
2021/11/10 06:06:04;;;;;;;16.60;15.10;;;4.30;59.50;;;;;;4916340;29;20193;-87
2021/11/10 06:08:30;;;;;;;15.40;13.83;;;4.30;59.30;;;;;;4918465;29;20176;-86
2021/11/10 06:10:56;;;;;;;16.37;14.63;;;4.30;60.00;;;;;;4917083;29;20216;-86
2021/11/10 06:13:22;;;;;;;15.80;14.20;;;4.30;59.80;;;;;;4917109;29;20918;-87
2021/11/10 06:15:47;;;;;;;15.97;14.37;;;4.20;60.00;;;;;;4916877;29;20185;-87
2021/11/10 06:18:13;;;;;;;13.77;12.33;;;4.20;60.40;;;;;;4916622;29;20735;-89
2021/11/10 06:20:39;;;;;;;15.30;13.80;;;4.10;60.30;;;;;;4917374;29;20188;-89
2021/11/10 06:23:05;;;;;;;18.63;13.83;;;4.20;60.90;;;;;;4918006;29;20638;-88
2021/11/10 06:25:31;;;;;;;21.40;14.47;;;4.30;60.30;;;;;;4918648;29;20251;-90
2021/11/10 06:27:57;;;;;;;16.40;14.87;;;4.30;60.00;;;;;;4917144;29;20738;-89
2021/11/10 06:30:41;;;;;;;15.27;13.80;;;4.30;59.60;;;;;;4918080;29;20601;-90
2021/11/10 06:33:07;;;;;;;19.73;14.30;;;4.30;59.40;;;;;;4918738;29;20449;-89
2021/11/10 06:35:33;;;;;;;15.90;14.23;;;4.20;59.70;;;;;;4918139;29;20803;-90
2021/11/10 06:37:59;;;;;;;16.60;14.00;;;4.20;59.40;;;;;;4918392;29;20457;-91
2021/11/10 06:40:25;;;;;;;16.13;14.43;;;4.20;59.70;;;;;;4918316;29;20431;-89
2021/11/10 06:42:51;;;;;;;15.80;14.20;;;4.20;59.30;;;;;;4916379;29;20212;-87
2021/11/10 06:45:17;;;;;;;17.17;13.87;;;4.10;59.60;;;;;;4916022;29;20220;-87
2021/11/10 06:47:43;;;;;;;15.53;13.93;;;4.20;59.20;;;;;;4916388;29;20429;-88
2021/11/10 06:50:09;;;;;;;18.53;14.87;;;4.10;58.70;;;;;;4915637;29;20479;-87
2021/11/10 06:52:35;;;;;;;15.00;13.50;;;4.10;59.70;;;;;;4915974;29;20185;-87
2021/11/10 06:55:01;;;;;;;15.67;14.27;;;4.20;59.10;;;;;;4915983;29;20500;-87
2021/11/10 06:57:27;;;;;;;16.80;14.80;;;4.20;58.60;;;;;;4915778;29;20440;-87
2021/11/10 06:59:53;;;;;;;16.97;15.17;;;4.30;58.00;;;;;;4916607;29;20440;-88
2021/11/10 07:02:19;;;;;;;21.13;15.43;;;4.20;58.70;;;;;;4916248;29;20188;-89
2021/11/10 07:04:44;;;;;;;19.67;16.30;;;4.20;58.90;;;;;;4916811;29;20507;-88
2021/11/10 07:07:10;;;;;;;20.33;15.00;;;4.20;59.00;;;;;;4915616;29;20763;-87
2021/11/10 07:09:36;;;;;;;20.30;15.50;;;4.10;59.00;;;;;;4915093;29;20209;-86
2021/11/10 07:12:02;;;;;;;16.10;14.50;;;4.00;59.10;;;;;;4914840;29;20176;-86
2021/11/10 07:14:28;;;;;;;22.80;15.43;;;4.00;59.60;;;;;;4914948;29;20185;-86
2021/11/10 07:16:55;;;;;;;17.43;15.70;;;4.00;59.50;;;;;;4930542;29;20417;-86
2021/11/10 07:19:20;;;;;;;17.67;15.77;;;4.10;59.60;;;;;;4915003;29;20232;-86
2021/11/10 07:21:47;;;;;;;17.87;14.83;;;4.10;58.90;;;;;;4916860;29;20500;-88
2021/11/10 07:24:13;;;;;;;19.03;16.83;;;4.00;59.40;;;;;;4915342;29;20305;-87
2021/11/10 07:26:39;;;;;;;20.97;14.67;;;4.00;59.80;;;;;;4915060;29;20441;-86
2021/11/10 07:29:05;;;;;;;20.47;15.87;;;4.00;59.30;;;;;;4917149;29;20895;-86
2021/11/10 07:31:31;;;;;;;21.07;15.30;;;4.10;59.10;;;;;;4914862;29;20516;-85
2021/11/10 07:33:59;;;;;;;16.83;15.03;;;4.20;58.10;;;;;;4914741;29;20554;-85
2021/11/10 07:36:26;;;;;;;20.27;15.50;;;4.20;58.60;;;;;;4917113;29;20207;-90
2021/11/10 07:38:53;;;;;;;17.60;15.37;;;4.10;59.00;;;;;;4918062;29;20464;-90
2021/11/10 07:41:20;;;;;;;20.60;16.53;;;4.20;59.40;;;;;;4919338;29;20425;-93
2021/11/10 07:43:52;;;;;;;16.67;15.10;;;4.30;59.00;;;;;;4922413;29;21012;-92
2021/11/10 07:46:19;;;;;;;18.60;16.07;;;4.40;58.70;;;;;;4918359;29;20945;-91
2021/11/10 07:48:47;;;;;;;24.27;16.27;;;4.50;58.50;;;;;;4914959;29;20477;-85
2021/11/10 07:51:13;;;;;;;19.33;16.20;;;4.50;58.50;;;;;;4915462;29;20425;-86
2021/11/10 07:53:39;;;;;;;20.73;17.57;;;4.50;58.60;;;;;;4916344;29;20413;-87
2021/11/10 07:56:05;;;;;;;19.40;16.77;;;4.60;58.20;;;;;;4931586;29;20938;-87
2021/11/10 07:58:33;;;;;;;18.63;16.87;;;4.60;58.50;;;;;;4934491;29;20192;-88
2021/11/10 08:00:59;;;;;;;17.03;15.13;;;4.70;57.60;;;;;;4950724;29;20412;-88
2021/11/10 08:03:25;;;;;;;21.57;16.23;;;4.70;57.70;;;;;;4934518;29;20775;-88
2021/11/10 08:05:50;;;;;;;16.80;15.20;;;4.80;57.60;;;;;;4936394;29;20408;-87
2021/11/10 08:08:17;;;;;;;20.67;18.47;;;4.80;57.60;;;;;;4950777;29;20187;-87
2021/11/10 08:10:43;;;;;;;20.83;16.53;;;4.90;57.10;;;;;;4950827;29;20208;-88
2021/11/10 08:13:09;;;;;;;17.90;15.97;;;4.90;57.30;;;;;;4950955;29;20923;-87
2021/11/10 08:15:36;;;;;;;18.90;15.80;;;5.00;56.80;;;;;;4936487;29;20423;-88
2021/11/10 08:18:02;;;;;;;18.20;16.40;;;5.00;56.40;;;;;;4950809;29;20454;-88
2021/11/10 08:20:28;;;;;;;19.40;17.30;;;5.00;56.70;;;;;;4951022;29;20426;-87
2021/11/10 08:22:55;;;;;;;22.63;17.40;;;5.20;56.40;;;;;;4935979;29;20420;-87
2021/11/10 08:25:21;;;;;;;18.00;15.90;;;5.20;55.80;;;;;;4950913;29;20647;-88
2021/11/10 08:27:47;;;;;;;18.23;16.17;;;5.20;56.10;;;;;;4951230;29;20455;-88
2021/11/10 08:30:17;;;;;;;25.83;16.37;;;5.30;56.80;;;;;;4951509;29;20459;-88
2021/11/10 08:32:44;;;;;;;22.20;17.43;;;5.30;57.00;;;;;;4951076;29;20228;-87
2021/11/10 08:35:10;;;;;;;20.63;15.77;;;5.50;56.30;;;;;;4950763;29;20452;-87
2021/11/10 08:37:36;;;;;;;20.77;15.40;;;5.50;55.80;;;;;;4950595;29;20427;-88
2021/11/10 08:40:04;;;;;;;17.33;15.50;;;5.50;55.70;;;;;;4950588;29;20420;-87
2021/11/10 08:42:33;;;;;;;20.40;16.80;;;5.50;55.30;;;;;;4950570;29;20839;-86
2021/11/10 08:45:20;;;;;;;18.90;17.03;;;5.70;55.20;;;;;;4954383;29;20526;-90
2021/11/10 08:47:48;;;;;;;18.03;16.20;;;5.90;55.30;;;;;;4954616;28;20412;-90
2021/11/10 08:50:18;;;;;;;18.27;16.03;;;6.00;55.10;;;;;;4938091;29;21189;-89
2021/11/10 08:52:45;;;;;;;19.33;17.23;;;6.00;54.00;;;;;;4938279;29;20408;-90
2021/11/10 08:55:17;;;;;;;19.03;16.10;;;6.10;53.90;;;;;;4937193;29;20416;-91
2021/11/10 08:57:43;;;;;;;19.07;16.37;;;6.20;53.60;;;;;;4937049;29;20439;-90
2021/11/10 09:00:13;;;;;;;19.27;16.47;;;6.20;52.60;;;;;;4937281;29;20467;-88
2021/11/10 09:02:39;;;;;;;23.00;18.33;;;6.30;52.80;;;;;;4934720;29;20423;-87
2021/11/10 09:05:05;;;;;;;24.20;17.27;;;6.40;53.30;;;;;;4953593;29;20437;-87
2021/11/10 09:07:31;;;;;;;21.50;16.67;;;6.40;53.30;;;;;;4929327;29;20512;-88
2021/11/10 09:09:57;;;;;;;17.53;15.50;;;6.40;53.90;;;;;;4934533;29;20995;-85
2021/11/10 09:12:23;;;;;;;17.17;15.60;;;6.40;52.20;;;;;;4955596;29;20188;-89
2021/11/10 09:14:49;;;;;;;21.30;18.63;;;6.40;52.90;;;;;;4955833;29;20183;-89
2021/11/10 09:17:15;;;;;;;18.23;16.17;;;6.40;53.40;;;;;;4955639;29;20477;-89
2021/11/10 09:19:41;;;;;;;17.77;15.97;;;6.50;53.00;;;;;;4955703;29;20515;-88
2021/11/10 09:22:08;;;;;;;20.20;17.47;;;6.50;52.50;;;;;;4955679;29;20422;-89
2021/11/10 09:24:35;;;;;;;20.83;18.60;;;6.50;52.80;;;;;;4952307;29;20183;-92
2021/11/10 09:27:03;;;;;;;18.73;16.70;;;6.60;53.10;;;;;;4952270;29;20423;-93
2021/11/10 09:29:30;;;;;;;20.67;17.20;;;6.70;53.10;;;;;;4951141;29;20536;-92
2021/11/10 09:31:59;;;;;;;19.93;17.70;;;6.70;53.10;;;;;;4944970;29;20415;-93
2021/11/10 09:34:25;;;;;;;21.97;19.57;;;6.70;50.90;;;;;;4956660;29;20420;-93
2021/11/10 09:36:52;;;;;;;23.67;19.73;;;6.50;51.90;;;;;;4957736;29;20905;-86
2021/11/10 09:39:21;;;;;;;19.70;16.40;;;6.50;52.10;;;;;;4957421;29;20422;-89
2021/11/10 09:41:49;;;;;;;32.63;29.20;;;6.50;52.50;;;;;;4956263;29;20432;-91
2021/11/10 09:44:15;;;;;;;32.07;28.80;;;6.50;52.60;;;;;;4955871;29;20431;-91
2021/11/10 09:46:41;;;;;;;28.63;25.63;;;6.50;52.50;;;;;;4954045;29;20419;-90
2021/11/10 09:49:10;;;;;;;27.00;24.13;;;6.50;52.00;;;;;;4940681;29;20493;-90
2021/11/10 09:51:36;;;;;;;29.03;22.13;;;6.50;52.10;;;;;;4956373;29;20427;-90
2021/11/10 09:54:03;;;;;;;38.80;33.93;;;6.50;52.40;;;;;;4954933;29;20427;-91
2021/11/10 09:56:31;;;;;;;28.83;24.20;;;6.50;52.40;;;;;;4954656;29;20424;-91
2021/11/10 09:58:57;;;;;;;25.70;23.00;;;6.50;52.30;;;;;;4955197;29;20427;-89
2021/11/10 10:01:23;;;;;;;20.47;18.30;;;6.40;52.00;;;;;;4954525;29;20860;-89
2021/11/10 10:03:52;;;;;;;22.07;19.30;;;6.50;52.90;;;;;;4957726;29;20427;-89
2021/11/10 10:06:20;;;;;;;21.67;19.33;;;6.60;52.20;;;;;;4957160;29;20439;-89
2021/11/10 10:08:49;;;;;;;26.27;23.43;;;6.60;52.10;;;;;;4958007;29;20468;-90
2021/11/10 10:11:23;;;;;;;24.70;20.97;;;6.60;52.30;;;;;;4957692;29;20448;-89
2021/11/10 10:13:58;;;;;;;49.90;19.30;;;6.60;52.10;;;;;;4964084;29;20411;-88
2021/11/10 10:16:28;;;;;;;30.40;19.30;;;6.60;52.20;;;;;;4955547;29;20418;-89
2021/11/10 10:19:13;;;;;;;18.63;15.70;;;6.70;52.20;;;;;;4955197;29;20432;-90
2021/11/10 10:21:40;;;;;;;22.07;17.83;;;6.70;52.50;;;;;;4955193;29;20848;-90
2021/11/10 10:24:11;;;;;;;17.73;15.83;;;6.80;51.40;;;;;;4940173;29;20947;-90
2021/11/10 10:26:38;;;;;;;22.50;17.00;;;6.80;51.60;;;;;;4951205;29;20423;-89
2021/11/10 10:29:08;;;;;;;22.30;18.00;;;6.70;52.00;;;;;;4944931;29;20471;-90
2021/11/10 10:31:38;;;;;;;19.50;17.10;;;6.80;52.50;;;;;;4939134;29;20415;-88
2021/11/10 10:34:08;;;;;;;19.67;17.50;;;6.80;51.60;;;;;;4939362;29;20779;-89
2021/11/10 10:36:37;;;;;;;19.83;17.73;;;6.90;51.90;;;;;;4938737;29;20420;-89
2021/11/10 10:39:11;;;;;;;23.00;18.60;;;7.00;51.30;;;;;;4938643;29;20412;-90
2021/11/10 10:41:40;;;;;;;20.57;18.33;;;6.90;51.10;;;;;;4956332;29;20423;-90
2021/11/10 10:44:13;;;;;;;25.07;17.97;;;6.90;51.20;;;;;;4939611;29;20416;-90
2021/11/10 10:46:42;;;;;;;23.60;18.77;;;7.00;51.30;;;;;;4939545;29;20501;-90
2021/11/10 10:49:14;;;;;;;20.80;18.47;;;7.10;51.70;;;;;;4940822;29;20456;-91
2021/11/10 10:51:41;;;;;;;20.73;18.52;;;7.10;51.90;;;;;;4938215;29;20421;-91
2021/11/10 10:54:09;;;;;;;20.87;17.20;;;7.20;51.60;;;;;;4939221;29;20184;-90
2021/11/10 10:56:36;;;;;;;22.33;17.20;;;7.20;51.20;;;;;;4923103;29;20466;-91
2021/11/10 10:59:05;;;;;;;25.93;18.70;;;7.20;51.30;;;;;;4955413;29;20416;-90
2021/11/10 11:02:03;;;;;;;21.87;18.27;;;7.10;50.80;;;;;;4938472;29;20427;-90
2021/11/10 11:04:33;;;;;;;21.77;19.13;;;7.10;50.80;;;;;;4955459;29;20462;-90
2021/11/10 11:07:05;;;;;;;21.40;18.83;;;7.20;50.70;;;;;;4955053;29;20431;-89
2021/11/10 11:09:52;;;;;;;19.67;17.60;;;7.20;50.50;;;;;;4939216;29;20482;-91
2021/11/10 11:12:27;;;;;;;21.60;19.37;;;7.20;50.50;;;;;;4954393;29;20422;-90
2021/11/10 11:15:11;;;;;;;20.93;18.83;;;7.10;50.00;;;;;;4938784;29;20429;-90
2021/11/10 11:17:42;;;;;;;22.00;19.30;;;7.10;50.50;;;;;;4937769;29;20442;-90
2021/11/10 11:20:20;;;;;;;28.30;19.50;;;7.30;50.90;;;;;;4939151;29;20441;-91
2021/11/10 11:22:45;;;;;;;21.30;19.00;;;7.30;50.50;;;;;;4939557;29;20434;-90
2021/11/10 11:25:31;;;;;;;24.33;20.53;;;7.30;50.10;;;;;;4939475;29;20434;-90
2021/11/10 11:27:57;;;;;;;21.03;18.80;;;7.30;50.40;;;;;;4938083;29;20190;-89
2021/11/10 11:30:27;;;;;;;20.80;18.53;;;7.30;50.10;;;;;;4938314;29;20522;-90
2021/11/10 11:32:58;;;;;;;21.83;17.70;;;7.20;50.10;;;;;;4938040;29;20187;-90
2021/11/10 11:35:32;;;;;;;25.03;18.60;;;7.20;51.30;;;;;;4938015;29;20455;-90
2021/11/10 11:38:10;;;;;;;19.40;17.70;;;7.20;51.20;;;;;;4937466;29;20848;-90
2021/11/10 11:40:37;;;;;;;22.87;19.67;;;7.30;51.60;;;;;;4952721;29;20458;-90
2021/11/10 11:43:05;;;;;;;25.13;18.80;;;7.40;50.80;;;;;;4951438;29;20543;-89
2021/11/10 11:45:34;;;;;;;26.53;21.23;;;7.40;50.20;;;;;;4951372;29;20427;-89
2021/11/10 11:48:01;;;;;;;23.37;20.20;;;7.30;51.00;;;;;;4951959;29;20923;-90
2021/11/10 11:50:27;;;;;;;29.70;22.70;;;7.40;51.40;;;;;;4936096;29;20494;-88
2021/11/10 11:52:54;;;;;;;21.30;19.10;;;7.50;51.00;;;;;;4936520;29;20419;-89
2021/11/10 11:55:28;;;;;;;23.17;20.50;;;7.50;51.30;;;;;;4951044;29;20434;-89
2021/11/10 11:58:04;;;;;;;23.50;21.00;;;7.60;50.40;;;;;;4951364;29;20497;-89
2021/11/10 12:00:33;;;;;;;24.60;19.17;;;7.60;50.40;;;;;;4954452;29;20438;-91
2021/11/10 12:02:59;;;;;;;22.97;19.53;;;7.70;51.60;;;;;;4952604;29;20997;-90
2021/11/10 12:05:27;;;;;;;21.37;18.80;;;7.60;50.90;;;;;;4953967;29;20467;-90
2021/11/10 12:07:55;;;;;;;22.47;19.90;;;7.70;51.20;;;;;;4952932;29;20434;-90
2021/11/10 12:10:23;;;;;;;22.97;20.57;;;7.80;50.50;;;;;;4951614;29;20463;-89
2021/11/10 12:13:08;;;;;;;24.00;21.50;;;7.80;50.20;;;;;;4936499;29;20427;-89
2021/11/10 12:16:02;;;;;;;23.73;21.37;;;7.80;50.50;;;;;;4935323;29;20427;-90
2021/11/10 12:18:27;;;;;;;25.27;21.47;;;7.80;50.30;;;;;;4936034;29;20420;-91
2021/11/10 12:21:01;;;;;;;22.47;20.10;;;7.80;49.70;;;;;;4952447;29;20980;-90
2021/11/10 12:23:50;;;;;;;23.30;21.00;;;7.90;50.60;;;;;;4952409;29;20571;-90
2021/11/10 12:26:16;;;;;;;22.30;19.87;;;8.00;50.70;;;;;;4923513;29;20820;-90
2021/11/10 12:28:51;;;;;;;23.20;20.10;;;8.00;50.70;;;;;;4950693;29;20431;-89
2021/11/10 12:31:33;;;;;;;22.90;20.43;;;8.00;49.90;;;;;;4954152;29;20419;-90
2021/11/10 12:34:14;;;;;;;25.13;22.43;;;7.90;49.90;;;;;;4937079;29;20427;-89
2021/11/10 12:36:58;;;;;;;26.30;20.77;;;7.90;49.90;;;;;;4937671;29;20893;-89
2021/11/10 12:39:33;;;;;;;21.17;18.83;;;8.00;50.00;;;;;;4942771;29;20437;-89
2021/11/10 12:42:07;;;;;;;22.90;20.47;;;7.90;49.40;;;;;;4944217;29;20482;-91
2021/11/10 12:44:39;;;;;;;22.17;19.87;;;7.90;50.70;;;;;;4946612;29;20427;-92